sensor_id;sensor_type;location;lat;lon;timestamp;P1;durP1;ratioP1;P2;durP2;ratioP2
4837;SDS011;2433;48.768;9.154;2023-08-24T00:01:41;5.70;;;5.27;;
4837;SDS011;2433;48.768;9.154;2023-08-24T00:04:06;5.83;;;5.33;;
4837;SDS011;2433;48.768;9.154;2023-08-24T00:06:33;6.03;;;5.63;;
4837;SDS011;2433;48.768;9.154;2023-08-24T00:08:59;5.70;;;5.10;;
4837;SDS011;2433;48.768;9.154;2023-08-24T00:11:25;6.10;;;5.60;;
4837;SDS011;2433;48.768;9.154;2023-08-24T00:13:50;7.40;;;5.80;;
4837;SDS011;2433;48.768;9.154;2023-08-24T00:16:17;5.50;;;5.10;;
4837;SDS011;2433;48.768;9.154;2023-08-24T00:18:43;6.27;;;5.77;;
4837;SDS011;2433;48.768;9.154;2023-08-24T00:21:10;6.77;;;6.10;;
4837;SDS011;2433;48.768;9.154;2023-08-24T00:23:36;5.67;;;5.17;;
4837;SDS011;2433;48.768;9.154;2023-08-24T00:26:02;6.40;;;5.80;;
4837;SDS011;2433;48.768;9.154;2023-08-24T00:28:27;5.97;;;5.47;;
4837;SDS011;2433;48.768;9.154;2023-08-24T00:30:53;5.83;;;5.33;;
4837;SDS011;2433;48.768;9.154;2023-08-24T00:33:19;6.20;;;5.70;;
4837;SDS011;2433;48.768;9.154;2023-08-24T00:35:44;6.70;;;6.20;;
4837;SDS011;2433;48.768;9.154;2023-08-24T00:38:10;6.07;;;5.57;;
4837;SDS011;2433;48.768;9.154;2023-08-24T00:40:36;7.87;;;5.97;;
4837;SDS011;2433;48.768;9.154;2023-08-24T00:43:04;8.93;;;5.50;;
4837;SDS011;2433;48.768;9.154;2023-08-24T00:45:30;6.50;;;5.70;;
4837;SDS011;2433;48.768;9.154;2023-08-24T00:47:56;6.53;;;5.20;;
4837;SDS011;2433;48.768;9.154;2023-08-24T00:50:22;6.80;;;5.80;;
4837;SDS011;2433;48.768;9.154;2023-08-24T00:52:48;6.73;;;6.03;;
4837;SDS011;2433;48.768;9.154;2023-08-24T00:55:14;6.07;;;5.57;;
4837;SDS011;2433;48.768;9.154;2023-08-24T00:57:41;5.90;;;4.97;;
4837;SDS011;2433;48.768;9.154;2023-08-24T01:00:07;6.93;;;6.33;;
4837;SDS011;2433;48.768;9.154;2023-08-24T01:02:35;6.40;;;5.90;;
4837;SDS011;2433;48.768;9.154;2023-08-24T01:05:02;5.70;;;5.23;;
4837;SDS011;2433;48.768;9.154;2023-08-24T01:07:30;5.33;;;4.90;;
4837;SDS011;2433;48.768;9.154;2023-08-24T01:09:56;6.80;;;6.10;;
4837;SDS011;2433;48.768;9.154;2023-08-24T01:12:26;7.27;;;5.53;;
4837;SDS011;2433;48.768;9.154;2023-08-24T01:15:19;6.20;;;5.70;;
4837;SDS011;2433;48.768;9.154;2023-08-24T01:17:44;8.43;;;5.90;;
4837;SDS011;2433;48.768;9.154;2023-08-24T01:20:12;5.80;;;5.30;;
4837;SDS011;2433;48.768;9.154;2023-08-24T01:25:06;8.53;;;6.20;;
4837;SDS011;2433;48.768;9.154;2023-08-24T01:27:42;5.63;;;5.20;;
4837;SDS011;2433;48.768;9.154;2023-08-24T01:30:08;6.93;;;6.10;;
4837;SDS011;2433;48.768;9.154;2023-08-24T01:32:36;6.90;;;6.13;;
4837;SDS011;2433;48.768;9.154;2023-08-24T01:35:06;7.00;;;6.30;;
4837;SDS011;2433;48.768;9.154;2023-08-24T01:37:34;6.50;;;6.00;;
4837;SDS011;2433;48.768;9.154;2023-08-24T01:42:59;6.30;;;5.80;;
4837;SDS011;2433;48.768;9.154;2023-08-24T01:45:29;8.57;;;7.40;;
4837;SDS011;2433;48.768;9.154;2023-08-24T01:47:55;7.90;;;6.73;;
4837;SDS011;2433;48.768;9.154;2023-08-24T01:50:22;7.37;;;6.77;;
4837;SDS011;2433;48.768;9.154;2023-08-24T01:52:48;8.10;;;7.37;;
4837;SDS011;2433;48.768;9.154;2023-08-24T01:55:14;7.30;;;6.43;;
4837;SDS011;2433;48.768;9.154;2023-08-24T01:57:43;8.40;;;7.60;;
4837;SDS011;2433;48.768;9.154;2023-08-24T02:00:08;7.17;;;6.50;;
4837;SDS011;2433;48.768;9.154;2023-08-24T02:02:39;7.07;;;6.40;;
4837;SDS011;2433;48.768;9.154;2023-08-24T02:05:04;7.53;;;6.70;;
4837;SDS011;2433;48.768;9.154;2023-08-24T02:07:31;6.47;;;5.93;;
4837;SDS011;2433;48.768;9.154;2023-08-24T02:09:56;6.60;;;6.10;;
4837;SDS011;2433;48.768;9.154;2023-08-24T02:12:22;7.90;;;6.50;;
4837;SDS011;2433;48.768;9.154;2023-08-24T02:14:47;6.73;;;6.13;;
4837;SDS011;2433;48.768;9.154;2023-08-24T02:17:15;6.33;;;5.83;;
4837;SDS011;2433;48.768;9.154;2023-08-24T02:19:40;7.30;;;6.40;;
4837;SDS011;2433;48.768;9.154;2023-08-24T02:22:08;9.23;;;6.17;;
4837;SDS011;2433;48.768;9.154;2023-08-24T02:24:33;7.20;;;6.50;;
4837;SDS011;2433;48.768;9.154;2023-08-24T02:26:59;6.20;;;5.67;;
4837;SDS011;2433;48.768;9.154;2023-08-24T02:29:25;6.73;;;6.20;;
4837;SDS011;2433;48.768;9.154;2023-08-24T02:31:51;6.30;;;5.70;;
4837;SDS011;2433;48.768;9.154;2023-08-24T02:34:17;7.90;;;6.63;;
4837;SDS011;2433;48.768;9.154;2023-08-24T02:36:43;7.30;;;6.60;;
4837;SDS011;2433;48.768;9.154;2023-08-24T02:39:08;6.20;;;5.70;;
4837;SDS011;2433;48.768;9.154;2023-08-24T02:41:34;7.40;;;6.67;;
4837;SDS011;2433;48.768;9.154;2023-08-24T02:44:00;7.00;;;6.40;;
4837;SDS011;2433;48.768;9.154;2023-08-24T02:46:26;7.70;;;7.10;;
4837;SDS011;2433;48.768;9.154;2023-08-24T02:48:51;8.90;;;6.93;;
4837;SDS011;2433;48.768;9.154;2023-08-24T02:51:17;6.73;;;6.23;;
4837;SDS011;2433;48.768;9.154;2023-08-24T02:53:43;9.13;;;6.53;;
4837;SDS011;2433;48.768;9.154;2023-08-24T02:56:08;7.50;;;6.90;;
4837;SDS011;2433;48.768;9.154;2023-08-24T02:58:34;7.30;;;6.60;;
4837;SDS011;2433;48.768;9.154;2023-08-24T03:01:03;8.17;;;7.30;;
4837;SDS011;2433;48.768;9.154;2023-08-24T03:03:32;7.77;;;7.17;;
4837;SDS011;2433;48.768;9.154;2023-08-24T03:06:02;7.23;;;6.63;;
4837;SDS011;2433;48.768;9.154;2023-08-24T03:08:33;6.97;;;6.10;;
4837;SDS011;2433;48.768;9.154;2023-08-24T03:11:00;6.70;;;6.10;;
4837;SDS011;2433;48.768;9.154;2023-08-24T03:13:27;8.00;;;7.40;;
4837;SDS011;2433;48.768;9.154;2023-08-24T03:15:54;7.60;;;7.00;;
4837;SDS011;2433;48.768;9.154;2023-08-24T03:18:21;7.77;;;7.17;;
4837;SDS011;2433;48.768;9.154;2023-08-24T03:20:47;7.20;;;6.60;;
4837;SDS011;2433;48.768;9.154;2023-08-24T03:23:15;7.47;;;6.87;;
4837;SDS011;2433;48.768;9.154;2023-08-24T03:25:41;7.77;;;7.17;;
4837;SDS011;2433;48.768;9.154;2023-08-24T03:28:07;7.07;;;6.47;;
4837;SDS011;2433;48.768;9.154;2023-08-24T03:30:37;6.87;;;6.27;;
4837;SDS011;2433;48.768;9.154;2023-08-24T03:33:04;8.00;;;7.30;;
4837;SDS011;2433;48.768;9.154;2023-08-24T03:35:30;7.87;;;7.13;;
4837;SDS011;2433;48.768;9.154;2023-08-24T03:37:56;8.90;;;8.20;;
4837;SDS011;2433;48.768;9.154;2023-08-24T03:40:23;8.57;;;7.77;;
4837;SDS011;2433;48.768;9.154;2023-08-24T03:42:52;7.73;;;7.13;;
4837;SDS011;2433;48.768;9.154;2023-08-24T03:45:18;8.87;;;7.27;;
4837;SDS011;2433;48.768;9.154;2023-08-24T03:47:44;8.50;;;7.80;;
4837;SDS011;2433;48.768;9.154;2023-08-24T03:50:10;8.07;;;7.37;;
4837;SDS011;2433;48.768;9.154;2023-08-24T03:52:36;8.70;;;7.90;;
4837;SDS011;2433;48.768;9.154;2023-08-24T03:55:02;7.90;;;7.10;;
4837;SDS011;2433;48.768;9.154;2023-08-24T03:57:27;8.57;;;7.87;;
4837;SDS011;2433;48.768;9.154;2023-08-24T03:59:53;8.50;;;7.80;;
4837;SDS011;2433;48.768;9.154;2023-08-24T04:02:19;8.23;;;7.53;;
4837;SDS011;2433;48.768;9.154;2023-08-24T04:04:45;8.00;;;7.20;;
4837;SDS011;2433;48.768;9.154;2023-08-24T04:07:14;6.87;;;6.33;;
4837;SDS011;2433;48.768;9.154;2023-08-24T04:09:40;7.47;;;6.77;;
4837;SDS011;2433;48.768;9.154;2023-08-24T04:12:06;7.50;;;6.80;;
4837;SDS011;2433;48.768;9.154;2023-08-24T04:14:32;8.10;;;7.40;;
4837;SDS011;2433;48.768;9.154;2023-08-24T04:16:57;8.73;;;7.83;;
4837;SDS011;2433;48.768;9.154;2023-08-24T04:19:23;7.70;;;7.10;;
4837;SDS011;2433;48.768;9.154;2023-08-24T04:21:48;8.47;;;7.67;;
4837;SDS011;2433;48.768;9.154;2023-08-24T04:24:14;7.97;;;7.17;;
4837;SDS011;2433;48.768;9.154;2023-08-24T04:26:39;8.73;;;7.77;;
4837;SDS011;2433;48.768;9.154;2023-08-24T04:29:05;8.77;;;7.97;;
4837;SDS011;2433;48.768;9.154;2023-08-24T04:31:31;7.03;;;6.43;;
4837;SDS011;2433;48.768;9.154;2023-08-24T04:33:56;9.30;;;8.37;;
4837;SDS011;2433;48.768;9.154;2023-08-24T04:36:22;8.27;;;7.57;;
4837;SDS011;2433;48.768;9.154;2023-08-24T04:38:47;8.17;;;7.40;;
4837;SDS011;2433;48.768;9.154;2023-08-24T04:41:13;7.63;;;6.90;;
4837;SDS011;2433;48.768;9.154;2023-08-24T04:43:38;8.00;;;7.40;;
4837;SDS011;2433;48.768;9.154;2023-08-24T04:46:04;8.00;;;7.30;;
4837;SDS011;2433;48.768;9.154;2023-08-24T04:48:30;7.77;;;7.07;;
4837;SDS011;2433;48.768;9.154;2023-08-24T04:51:00;7.87;;;7.20;;
4837;SDS011;2433;48.768;9.154;2023-08-24T04:53:27;8.10;;;7.30;;
4837;SDS011;2433;48.768;9.154;2023-08-24T04:55:55;8.00;;;7.30;;
4837;SDS011;2433;48.768;9.154;2023-08-24T04:58:21;8.10;;;7.40;;
4837;SDS011;2433;48.768;9.154;2023-08-24T05:00:47;9.00;;;8.30;;
4837;SDS011;2433;48.768;9.154;2023-08-24T05:03:13;7.07;;;6.37;;
4837;SDS011;2433;48.768;9.154;2023-08-24T05:05:39;8.47;;;7.77;;
4837;SDS011;2433;48.768;9.154;2023-08-24T05:08:05;8.50;;;7.77;;
4837;SDS011;2433;48.768;9.154;2023-08-24T05:10:32;7.53;;;6.93;;
4837;SDS011;2433;48.768;9.154;2023-08-24T05:12:58;7.90;;;7.20;;
4837;SDS011;2433;48.768;9.154;2023-08-24T05:15:24;7.10;;;6.50;;
4837;SDS011;2433;48.768;9.154;2023-08-24T05:17:50;6.40;;;5.80;;
4837;SDS011;2433;48.768;9.154;2023-08-24T05:20:20;7.70;;;6.77;;
4837;SDS011;2433;48.768;9.154;2023-08-24T05:22:46;7.37;;;6.33;;
4837;SDS011;2433;48.768;9.154;2023-08-24T05:25:11;5.90;;;5.40;;
4837;SDS011;2433;48.768;9.154;2023-08-24T05:27:37;6.80;;;6.20;;
4837;SDS011;2433;48.768;9.154;2023-08-24T05:30:05;6.10;;;5.50;;
4837;SDS011;2433;48.768;9.154;2023-08-24T05:32:31;6.37;;;5.80;;
4837;SDS011;2433;48.768;9.154;2023-08-24T05:34:57;7.10;;;6.60;;
4837;SDS011;2433;48.768;9.154;2023-08-24T05:37:23;7.13;;;6.63;;
4837;SDS011;2433;48.768;9.154;2023-08-24T05:39:49;6.40;;;5.80;;
4837;SDS011;2433;48.768;9.154;2023-08-24T05:42:14;6.77;;;6.07;;
4837;SDS011;2433;48.768;9.154;2023-08-24T05:44:40;6.97;;;6.27;;
4837;SDS011;2433;48.768;9.154;2023-08-24T05:47:05;6.40;;;5.90;;
4837;SDS011;2433;48.768;9.154;2023-08-24T05:49:31;6.20;;;5.60;;
4837;SDS011;2433;48.768;9.154;2023-08-24T05:51:57;5.63;;;5.13;;
4837;SDS011;2433;48.768;9.154;2023-08-24T05:54:22;6.40;;;5.90;;
4837;SDS011;2433;48.768;9.154;2023-08-24T05:56:49;8.10;;;6.40;;
4837;SDS011;2433;48.768;9.154;2023-08-24T05:59:15;6.93;;;6.33;;
4837;SDS011;2433;48.768;9.154;2023-08-24T06:01:41;7.10;;;6.40;;
4837;SDS011;2433;48.768;9.154;2023-08-24T06:04:07;6.10;;;5.60;;
4837;SDS011;2433;48.768;9.154;2023-08-24T06:06:34;9.10;;;5.83;;
4837;SDS011;2433;48.768;9.154;2023-08-24T06:09:01;7.10;;;6.10;;
4837;SDS011;2433;48.768;9.154;2023-08-24T06:11:29;11.03;;;6.07;;
4837;SDS011;2433;48.768;9.154;2023-08-24T06:13:55;7.90;;;6.10;;
4837;SDS011;2433;48.768;9.154;2023-08-24T06:16:20;7.20;;;6.20;;
4837;SDS011;2433;48.768;9.154;2023-08-24T06:18:46;5.90;;;5.30;;
4837;SDS011;2433;48.768;9.154;2023-08-24T06:21:11;6.60;;;6.00;;
4837;SDS011;2433;48.768;9.154;2023-08-24T06:23:38;5.83;;;5.27;;
4837;SDS011;2433;48.768;9.154;2023-08-24T06:26:04;6.00;;;5.50;;
4837;SDS011;2433;48.768;9.154;2023-08-24T06:28:30;6.03;;;5.63;;
4837;SDS011;2433;48.768;9.154;2023-08-24T06:30:56;5.63;;;5.20;;
4837;SDS011;2433;48.768;9.154;2023-08-24T06:33:26;5.83;;;5.33;;
4837;SDS011;2433;48.768;9.154;2023-08-24T06:35:52;6.20;;;5.57;;
4837;SDS011;2433;48.768;9.154;2023-08-24T06:38:18;6.30;;;5.40;;
4837;SDS011;2433;48.768;9.154;2023-08-24T06:40:43;6.73;;;6.23;;
4837;SDS011;2433;48.768;9.154;2023-08-24T06:43:09;6.87;;;6.17;;
4837;SDS011;2433;48.768;9.154;2023-08-24T06:45:34;6.10;;;5.60;;
4837;SDS011;2433;48.768;9.154;2023-08-24T06:48:00;6.97;;;6.37;;
4837;SDS011;2433;48.768;9.154;2023-08-24T06:50:25;6.10;;;5.60;;
4837;SDS011;2433;48.768;9.154;2023-08-24T06:52:51;6.43;;;5.83;;
4837;SDS011;2433;48.768;9.154;2023-08-24T06:55:17;6.07;;;5.53;;
4837;SDS011;2433;48.768;9.154;2023-08-24T06:57:47;5.40;;;4.67;;
4837;SDS011;2433;48.768;9.154;2023-08-24T07:00:13;5.80;;;5.30;;
4837;SDS011;2433;48.768;9.154;2023-08-24T07:02:40;5.70;;;5.30;;
4837;SDS011;2433;48.768;9.154;2023-08-24T07:05:06;6.70;;;6.10;;
4837;SDS011;2433;48.768;9.154;2023-08-24T07:07:34;6.50;;;6.00;;
4837;SDS011;2433;48.768;9.154;2023-08-24T07:10:00;6.07;;;5.60;;
4837;SDS011;2433;48.768;9.154;2023-08-24T07:12:26;6.60;;;6.00;;
4837;SDS011;2433;48.768;9.154;2023-08-24T07:14:51;7.30;;;6.17;;
4837;SDS011;2433;48.768;9.154;2023-08-24T07:17:17;6.07;;;5.47;;
4837;SDS011;2433;48.768;9.154;2023-08-24T07:19:43;5.87;;;5.37;;
4837;SDS011;2433;48.768;9.154;2023-08-24T07:22:09;5.93;;;5.33;;
4837;SDS011;2433;48.768;9.154;2023-08-24T07:24:34;8.53;;;6.03;;
4837;SDS011;2433;48.768;9.154;2023-08-24T07:27:03;6.00;;;5.60;;
4837;SDS011;2433;48.768;9.154;2023-08-24T07:29:29;7.20;;;6.50;;
4837;SDS011;2433;48.768;9.154;2023-08-24T07:31:55;6.23;;;5.63;;
4837;SDS011;2433;48.768;9.154;2023-08-24T07:34:20;6.80;;;6.20;;
4837;SDS011;2433;48.768;9.154;2023-08-24T07:36:47;6.67;;;6.07;;
4837;SDS011;2433;48.768;9.154;2023-08-24T07:39:14;7.57;;;6.50;;
4837;SDS011;2433;48.768;9.154;2023-08-24T07:41:44;7.70;;;7.00;;
4837;SDS011;2433;48.768;9.154;2023-08-24T07:44:10;11.20;;;7.47;;
4837;SDS011;2433;48.768;9.154;2023-08-24T07:46:36;6.93;;;6.17;;
4837;SDS011;2433;48.768;9.154;2023-08-24T07:49:03;7.83;;;7.03;;
4837;SDS011;2433;48.768;9.154;2023-08-24T07:51:30;8.43;;;7.63;;
4837;SDS011;2433;48.768;9.154;2023-08-24T07:53:55;9.10;;;7.57;;
4837;SDS011;2433;48.768;9.154;2023-08-24T07:56:21;9.80;;;8.77;;
4837;SDS011;2433;48.768;9.154;2023-08-24T07:58:48;9.60;;;7.27;;
4837;SDS011;2433;48.768;9.154;2023-08-24T08:01:13;10.83;;;9.73;;
4837;SDS011;2433;48.768;9.154;2023-08-24T08:03:39;8.63;;;7.83;;
4837;SDS011;2433;48.768;9.154;2023-08-24T08:06:04;8.17;;;7.37;;
4837;SDS011;2433;48.768;9.154;2023-08-24T08:08:30;8.87;;;7.97;;
4837;SDS011;2433;48.768;9.154;2023-08-24T08:11:02;8.67;;;7.87;;
4837;SDS011;2433;48.768;9.154;2023-08-24T08:13:28;8.57;;;7.87;;
4837;SDS011;2433;48.768;9.154;2023-08-24T08:16:04;8.87;;;7.97;;
4837;SDS011;2433;48.768;9.154;2023-08-24T08:18:30;9.40;;;8.60;;
4837;SDS011;2433;48.768;9.154;2023-08-24T08:20:59;8.50;;;7.17;;
4837;SDS011;2433;48.768;9.154;2023-08-24T08:23:24;12.37;;;8.23;;
4837;SDS011;2433;48.768;9.154;2023-08-24T08:25:50;8.40;;;7.70;;
4837;SDS011;2433;48.768;9.154;2023-08-24T08:28:16;10.10;;;7.40;;
4837;SDS011;2433;48.768;9.154;2023-08-24T08:30:44;9.80;;;7.67;;
4837;SDS011;2433;48.768;9.154;2023-08-24T08:33:13;8.83;;;7.80;;
4837;SDS011;2433;48.768;9.154;2023-08-24T08:35:39;7.70;;;7.00;;
4837;SDS011;2433;48.768;9.154;2023-08-24T08:38:05;8.43;;;6.97;;
4837;SDS011;2433;48.768;9.154;2023-08-24T08:40:32;7.17;;;6.57;;
4837;SDS011;2433;48.768;9.154;2023-08-24T08:43:02;7.90;;;7.10;;
4837;SDS011;2433;48.768;9.154;2023-08-24T08:45:27;14.47;;;8.33;;
4837;SDS011;2433;48.768;9.154;2023-08-24T08:48:01;7.70;;;6.77;;
4837;SDS011;2433;48.768;9.154;2023-08-24T08:50:29;6.73;;;6.13;;
4837;SDS011;2433;48.768;9.154;2023-08-24T08:52:56;7.30;;;6.70;;
4837;SDS011;2433;48.768;9.154;2023-08-24T08:55:23;7.90;;;6.23;;
4837;SDS011;2433;48.768;9.154;2023-08-24T08:57:50;6.83;;;6.00;;
4837;SDS011;2433;48.768;9.154;2023-08-24T09:00:17;8.83;;;7.40;;
4837;SDS011;2433;48.768;9.154;2023-08-24T09:02:44;7.63;;;7.07;;
4837;SDS011;2433;48.768;9.154;2023-08-24T09:05:11;6.30;;;5.80;;
4837;SDS011;2433;48.768;9.154;2023-08-24T09:07:39;6.80;;;6.30;;
4837;SDS011;2433;48.768;9.154;2023-08-24T09:10:05;6.90;;;6.30;;
4837;SDS011;2433;48.768;9.154;2023-08-24T09:12:32;7.77;;;6.97;;
4837;SDS011;2433;48.768;9.154;2023-08-24T09:14:58;7.20;;;6.57;;
4837;SDS011;2433;48.768;9.154;2023-08-24T09:17:24;6.60;;;6.00;;
4837;SDS011;2433;48.768;9.154;2023-08-24T09:19:50;7.50;;;6.73;;
4837;SDS011;2433;48.768;9.154;2023-08-24T09:22:19;7.70;;;6.10;;
4837;SDS011;2433;48.768;9.154;2023-08-24T09:24:48;6.80;;;6.20;;
4837;SDS011;2433;48.768;9.154;2023-08-24T09:27:19;7.20;;;6.50;;
4837;SDS011;2433;48.768;9.154;2023-08-24T09:29:51;7.70;;;6.47;;
4837;SDS011;2433;48.768;9.154;2023-08-24T09:32:22;5.93;;;5.53;;
4837;SDS011;2433;48.768;9.154;2023-08-24T09:35:04;6.13;;;5.70;;
4837;SDS011;2433;48.768;9.154;2023-08-24T09:37:33;7.10;;;6.50;;
4837;SDS011;2433;48.768;9.154;2023-08-24T09:40:03;7.10;;;6.47;;
4837;SDS011;2433;48.768;9.154;2023-08-24T09:42:39;6.60;;;6.07;;
4837;SDS011;2433;48.768;9.154;2023-08-24T09:45:08;7.60;;;6.90;;
4837;SDS011;2433;48.768;9.154;2023-08-24T09:47:36;7.30;;;6.70;;
4837;SDS011;2433;48.768;9.154;2023-08-24T09:50:03;7.60;;;6.90;;
4837;SDS011;2433;48.768;9.154;2023-08-24T09:52:31;6.90;;;6.40;;
4837;SDS011;2433;48.768;9.154;2023-08-24T09:54:59;8.00;;;7.30;;
4837;SDS011;2433;48.768;9.154;2023-08-24T09:57:31;7.90;;;6.77;;
4837;SDS011;2433;48.768;9.154;2023-08-24T09:59:58;6.93;;;6.20;;
4837;SDS011;2433;48.768;9.154;2023-08-24T10:02:24;7.20;;;6.50;;
4837;SDS011;2433;48.768;9.154;2023-08-24T10:04:50;7.00;;;6.40;;
4837;SDS011;2433;48.768;9.154;2023-08-24T10:07:19;7.00;;;6.30;;
4837;SDS011;2433;48.768;9.154;2023-08-24T10:09:59;7.07;;;6.33;;
4837;SDS011;2433;48.768;9.154;2023-08-24T10:12:29;6.67;;;6.13;;
4837;SDS011;2433;48.768;9.154;2023-08-24T10:15:00;6.83;;;6.23;;
4837;SDS011;2433;48.768;9.154;2023-08-24T10:17:29;6.77;;;6.27;;
4837;SDS011;2433;48.768;9.154;2023-08-24T10:19:58;7.20;;;6.60;;
4837;SDS011;2433;48.768;9.154;2023-08-24T10:22:27;6.23;;;5.73;;
4837;SDS011;2433;48.768;9.154;2023-08-24T10:24:53;7.40;;;6.80;;
4837;SDS011;2433;48.768;9.154;2023-08-24T10:27:20;8.17;;;7.40;;
4837;SDS011;2433;48.768;9.154;2023-08-24T10:29:47;6.90;;;6.30;;
4837;SDS011;2433;48.768;9.154;2023-08-24T10:32:13;7.07;;;6.20;;
4837;SDS011;2433;48.768;9.154;2023-08-24T10:34:38;7.23;;;6.47;;
4837;SDS011;2433;48.768;9.154;2023-08-24T10:37:08;6.87;;;6.23;;
4837;SDS011;2433;48.768;9.154;2023-08-24T10:39:35;6.50;;;5.90;;
4837;SDS011;2433;48.768;9.154;2023-08-24T10:42:03;6.90;;;6.33;;
4837;SDS011;2433;48.768;9.154;2023-08-24T10:44:36;6.17;;;5.67;;
4837;SDS011;2433;48.768;9.154;2023-08-24T10:47:06;6.77;;;6.17;;
4837;SDS011;2433;48.768;9.154;2023-08-24T10:49:41;7.83;;;6.30;;
4837;SDS011;2433;48.768;9.154;2023-08-24T10:52:17;6.43;;;5.87;;
4837;SDS011;2433;48.768;9.154;2023-08-24T10:54:51;6.93;;;6.30;;
4837;SDS011;2433;48.768;9.154;2023-08-24T10:57:18;7.10;;;6.40;;
4837;SDS011;2433;48.768;9.154;2023-08-24T11:00:10;8.33;;;7.63;;
4837;SDS011;2433;48.768;9.154;2023-08-24T11:02:47;6.43;;;6.03;;
4837;SDS011;2433;48.768;9.154;2023-08-24T11:05:15;7.07;;;6.57;;
4837;SDS011;2433;48.768;9.154;2023-08-24T11:07:54;6.30;;;5.87;;
4837;SDS011;2433;48.768;9.154;2023-08-24T11:10:21;6.00;;;5.50;;
4837;SDS011;2433;48.768;9.154;2023-08-24T11:15:29;6.67;;;6.10;;
4837;SDS011;2433;48.768;9.154;2023-08-24T11:20:44;7.50;;;6.80;;
4837;SDS011;2433;48.768;9.154;2023-08-24T11:23:10;6.90;;;6.40;;
4837;SDS011;2433;48.768;9.154;2023-08-24T11:25:37;6.73;;;6.07;;
4837;SDS011;2433;48.768;9.154;2023-08-24T11:28:03;6.37;;;5.63;;
4837;SDS011;2433;48.768;9.154;2023-08-24T11:30:29;6.10;;;5.60;;
4837;SDS011;2433;48.768;9.154;2023-08-24T11:32:55;7.07;;;6.47;;
4837;SDS011;2433;48.768;9.154;2023-08-24T11:35:21;7.33;;;6.73;;
4837;SDS011;2433;48.768;9.154;2023-08-24T11:37:52;6.57;;;5.97;;
4837;SDS011;2433;48.768;9.154;2023-08-24T11:40:21;6.93;;;6.33;;
4837;SDS011;2433;48.768;9.154;2023-08-24T11:42:55;7.17;;;6.53;;
4837;SDS011;2433;48.768;9.154;2023-08-24T11:45:21;6.83;;;6.23;;
4837;SDS011;2433;48.768;9.154;2023-08-24T11:47:47;8.43;;;6.30;;
4837;SDS011;2433;48.768;9.154;2023-08-24T11:50:16;6.37;;;5.73;;
4837;SDS011;2433;48.768;9.154;2023-08-24T11:52:42;8.40;;;7.60;;
4837;SDS011;2433;48.768;9.154;2023-08-24T11:55:08;7.30;;;6.70;;
4837;SDS011;2433;48.768;9.154;2023-08-24T11:57:36;9.10;;;6.53;;
4837;SDS011;2433;48.768;9.154;2023-08-24T12:00:03;7.13;;;6.53;;
4837;SDS011;2433;48.768;9.154;2023-08-24T12:02:32;8.87;;;5.93;;
4837;SDS011;2433;48.768;9.154;2023-08-24T12:04:57;6.13;;;5.63;;
4837;SDS011;2433;48.768;9.154;2023-08-24T12:07:24;8.03;;;6.73;;
4837;SDS011;2433;48.768;9.154;2023-08-24T12:09:49;7.63;;;6.93;;
4837;SDS011;2433;48.768;9.154;2023-08-24T12:12:18;6.80;;;6.10;;
4837;SDS011;2433;48.768;9.154;2023-08-24T12:14:48;6.80;;;6.20;;
4837;SDS011;2433;48.768;9.154;2023-08-24T12:17:15;9.70;;;7.07;;
4837;SDS011;2433;48.768;9.154;2023-08-24T12:19:45;7.60;;;7.00;;
4837;SDS011;2433;48.768;9.154;2023-08-24T12:22:19;7.07;;;6.47;;
4837;SDS011;2433;48.768;9.154;2023-08-24T12:24:45;8.30;;;6.30;;
4837;SDS011;2433;48.768;9.154;2023-08-24T12:27:18;7.30;;;5.97;;
4837;SDS011;2433;48.768;9.154;2023-08-24T12:29:47;6.63;;;6.03;;
4837;SDS011;2433;48.768;9.154;2023-08-24T12:32:16;6.20;;;5.70;;
4837;SDS011;2433;48.768;9.154;2023-08-24T12:34:46;7.20;;;6.50;;
4837;SDS011;2433;48.768;9.154;2023-08-24T12:37:11;8.47;;;6.37;;
4837;SDS011;2433;48.768;9.154;2023-08-24T12:39:38;7.20;;;6.30;;
4837;SDS011;2433;48.768;9.154;2023-08-24T12:42:04;7.27;;;6.40;;
4837;SDS011;2433;48.768;9.154;2023-08-24T12:44:30;6.77;;;6.10;;
4837;SDS011;2433;48.768;9.154;2023-08-24T12:46:56;7.83;;;6.00;;
4837;SDS011;2433;48.768;9.154;2023-08-24T12:49:21;6.87;;;6.33;;
4837;SDS011;2433;48.768;9.154;2023-08-24T12:51:47;6.73;;;6.03;;
4837;SDS011;2433;48.768;9.154;2023-08-24T12:54:12;7.20;;;6.60;;
4837;SDS011;2433;48.768;9.154;2023-08-24T12:56:38;7.50;;;6.60;;
4837;SDS011;2433;48.768;9.154;2023-08-24T12:59:06;6.73;;;6.07;;
4837;SDS011;2433;48.768;9.154;2023-08-24T13:01:32;7.30;;;6.60;;
4837;SDS011;2433;48.768;9.154;2023-08-24T13:03:57;6.67;;;6.07;;
4837;SDS011;2433;48.768;9.154;2023-08-24T13:06:23;7.27;;;6.53;;
4837;SDS011;2433;48.768;9.154;2023-08-24T13:08:49;7.00;;;6.50;;
4837;SDS011;2433;48.768;9.154;2023-08-24T13:11:15;7.00;;;6.30;;
4837;SDS011;2433;48.768;9.154;2023-08-24T13:13:40;7.53;;;6.73;;
4837;SDS011;2433;48.768;9.154;2023-08-24T13:16:06;7.17;;;5.97;;
4837;SDS011;2433;48.768;9.154;2023-08-24T13:18:32;7.30;;;5.67;;
4837;SDS011;2433;48.768;9.154;2023-08-24T13:20:58;5.53;;;5.00;;
4837;SDS011;2433;48.768;9.154;2023-08-24T13:23:24;7.60;;;7.00;;
4837;SDS011;2433;48.768;9.154;2023-08-24T13:25:50;6.40;;;5.60;;
4837;SDS011;2433;48.768;9.154;2023-08-24T13:28:16;6.40;;;5.90;;
4837;SDS011;2433;48.768;9.154;2023-08-24T13:30:41;7.73;;;6.23;;
4837;SDS011;2433;48.768;9.154;2023-08-24T13:33:08;6.50;;;5.90;;
4837;SDS011;2433;48.768;9.154;2023-08-24T13:35:34;6.93;;;6.20;;
4837;SDS011;2433;48.768;9.154;2023-08-24T13:38:00;6.00;;;5.60;;
4837;SDS011;2433;48.768;9.154;2023-08-24T13:40:25;8.17;;;6.70;;
4837;SDS011;2433;48.768;9.154;2023-08-24T13:42:51;6.97;;;5.70;;
4837;SDS011;2433;48.768;9.154;2023-08-24T13:45:16;8.13;;;6.13;;
4837;SDS011;2433;48.768;9.154;2023-08-24T13:47:42;6.80;;;6.07;;
4837;SDS011;2433;48.768;9.154;2023-08-24T13:50:08;6.23;;;5.73;;
4837;SDS011;2433;48.768;9.154;2023-08-24T13:52:33;7.30;;;5.53;;
4837;SDS011;2433;48.768;9.154;2023-08-24T13:54:59;7.37;;;5.67;;
4837;SDS011;2433;48.768;9.154;2023-08-24T13:57:26;8.83;;;5.97;;
4837;SDS011;2433;48.768;9.154;2023-08-24T13:59:52;7.47;;;4.90;;
4837;SDS011;2433;48.768;9.154;2023-08-24T14:02:17;8.37;;;4.90;;
4837;SDS011;2433;48.768;9.154;2023-08-24T14:04:43;6.70;;;5.30;;
4837;SDS011;2433;48.768;9.154;2023-08-24T14:07:08;7.17;;;5.13;;
4837;SDS011;2433;48.768;9.154;2023-08-24T14:09:34;7.03;;;4.80;;
4837;SDS011;2433;48.768;9.154;2023-08-24T14:12:00;6.03;;;4.70;;
4837;SDS011;2433;48.768;9.154;2023-08-24T14:14:26;5.13;;;4.60;;
4837;SDS011;2433;48.768;9.154;2023-08-24T14:16:54;5.70;;;4.43;;
4837;SDS011;2433;48.768;9.154;2023-08-24T14:19:21;7.17;;;4.40;;
4837;SDS011;2433;48.768;9.154;2023-08-24T14:21:47;6.17;;;5.47;;
4837;SDS011;2433;48.768;9.154;2023-08-24T14:24:12;5.80;;;4.43;;
4837;SDS011;2433;48.768;9.154;2023-08-24T14:26:38;6.80;;;5.33;;
4837;SDS011;2433;48.768;9.154;2023-08-24T14:29:04;4.87;;;4.37;;
4837;SDS011;2433;48.768;9.154;2023-08-24T14:31:30;6.50;;;4.80;;
4837;SDS011;2433;48.768;9.154;2023-08-24T14:33:56;5.90;;;4.50;;
4837;SDS011;2433;48.768;9.154;2023-08-24T14:36:22;6.17;;;4.80;;
4837;SDS011;2433;48.768;9.154;2023-08-24T14:38:48;8.00;;;5.50;;
4837;SDS011;2433;48.768;9.154;2023-08-24T14:41:15;8.33;;;5.27;;
4837;SDS011;2433;48.768;9.154;2023-08-24T14:43:41;7.07;;;5.40;;
4837;SDS011;2433;48.768;9.154;2023-08-24T14:46:07;6.43;;;4.77;;
4837;SDS011;2433;48.768;9.154;2023-08-24T14:48:35;7.10;;;4.80;;
4837;SDS011;2433;48.768;9.154;2023-08-24T14:51:01;8.97;;;6.00;;
4837;SDS011;2433;48.768;9.154;2023-08-24T14:53:27;6.70;;;4.80;;
4837;SDS011;2433;48.768;9.154;2023-08-24T14:55:56;7.00;;;5.17;;
4837;SDS011;2433;48.768;9.154;2023-08-24T14:58:22;5.43;;;4.83;;
4837;SDS011;2433;48.768;9.154;2023-08-24T15:00:48;8.23;;;6.07;;
4837;SDS011;2433;48.768;9.154;2023-08-24T15:03:15;7.50;;;6.20;;
4837;SDS011;2433;48.768;9.154;2023-08-24T15:05:46;10.27;;;6.60;;
4837;SDS011;2433;48.768;9.154;2023-08-24T15:08:21;9.40;;;7.17;;
4837;SDS011;2433;48.768;9.154;2023-08-24T15:10:47;7.03;;;6.23;;
4837;SDS011;2433;48.768;9.154;2023-08-24T15:13:14;6.53;;;5.40;;
4837;SDS011;2433;48.768;9.154;2023-08-24T15:15:42;4.97;;;3.97;;
4837;SDS011;2433;48.768;9.154;2023-08-24T15:18:09;6.20;;;4.53;;
4837;SDS011;2433;48.768;9.154;2023-08-24T15:20:36;7.13;;;3.90;;
4837;SDS011;2433;48.768;9.154;2023-08-24T15:23:04;4.43;;;3.10;;
4837;SDS011;2433;48.768;9.154;2023-08-24T15:25:30;4.70;;;3.50;;